Chelyan, West Virginia
Current Conditions -  °F | °C
As of 9:54 AM on Friday 28 Nov 2014 (Local Time) from KCRW Reporting Station
Light Snow Light Snow  
Wind Chill: 20°   Ceiling: 4300
Heat Index: 29°   Visibility: 9mi
Dew Point: 16°   Wind: 9mph
Humidity: 58%   Direction: 290°WNW
Pressure: 30.4"   Gusts: NA
Location:  38.1782°N, 81.5274°W
Report Text: KCRW 281454Z 29008KT 250V310 9SM -SN SCT027 OVC043 M02/M09 A3040 RMK AO2 SNB44 SLP303 OVC V BKN FLURRIES P0000 60000 T10171089 51008
Loading
Personal Weather Stations






























Interactive Weather Map New forecast layout! Learn more

10-Day Weather Forecast

Advertisements
Track Severe Weather on mobile